createdAt,value
2022-10-14T00:00:44.982Z,11.72
2022-10-14T00:01:46.773Z,11.7
2022-10-14T00:02:48.442Z,11.71
2022-10-14T00:03:50.198Z,11.7
2022-10-14T00:04:51.936Z,11.69
2022-10-14T00:05:53.654Z,11.68
2022-10-14T00:06:55.386Z,11.68
2022-10-14T00:07:57.129Z,11.68
2022-10-14T00:08:58.862Z,11.67
2022-10-14T00:10:00.607Z,11.67
2022-10-14T00:11:02.326Z,11.66
2022-10-14T00:12:04.065Z,11.65
2022-10-14T00:13:05.802Z,11.64
2022-10-14T00:14:07.552Z,11.64
2022-10-14T00:15:09.284Z,11.63
2022-10-14T00:16:11.014Z,11.63
2022-10-14T00:17:12.754Z,11.61
2022-10-14T00:18:14.479Z,11.6
2022-10-14T00:19:16.214Z,11.61
2022-10-14T00:20:17.977Z,11.6
2022-10-14T00:21:19.687Z,11.59
2022-10-14T00:22:21.437Z,11.59
2022-10-14T00:23:23.148Z,11.58
2022-10-14T00:24:24.909Z,11.57
2022-10-14T00:25:26.631Z,11.57
2022-10-14T00:26:28.355Z,11.55
2022-10-14T00:27:30.086Z,11.56
2022-10-14T00:28:31.878Z,11.55
2022-10-14T00:29:33.561Z,11.54
2022-10-14T00:30:35.309Z,11.53
2022-10-14T00:31:37.033Z,11.53
2022-10-14T00:32:38.766Z,11.53
2022-10-14T00:33:40.503Z,11.53
2022-10-14T00:34:42.263Z,11.52
2022-10-14T00:35:44.015Z,11.52
2022-10-14T00:36:45.710Z,11.51
2022-10-14T00:37:47.445Z,11.51
2022-10-14T00:38:49.179Z,11.5
2022-10-14T00:39:54.684Z,11.51
2022-10-14T00:40:52.659Z,11.5
2022-10-14T00:41:54.380Z,11.51
2022-10-14T00:42:56.115Z,11.5
2022-10-14T00:43:57.857Z,11.5
2022-10-14T00:44:59.585Z,11.5
2022-10-14T00:46:01.326Z,11.5
2022-10-14T00:47:03.060Z,11.5
2022-10-14T00:48:04.802Z,11.51
2022-10-14T00:49:06.532Z,11.51
2022-10-14T00:50:08.278Z,11.5
2022-10-14T00:51:09.999Z,11.51
2022-10-14T00:52:11.768Z,11.51
2022-10-14T00:53:13.474Z,11.51
2022-10-14T00:54:15.234Z,11.51
2022-10-14T00:55:16.973Z,11.52
2022-10-14T00:56:18.683Z,11.51
2022-10-14T00:57:20.643Z,11.52
2022-10-14T00:58:22.142Z,11.51
2022-10-14T00:59:23.879Z,11.52
2022-10-14T01:00:25.663Z,11.52
2022-10-14T01:01:27.352Z,11.52
2022-10-14T01:02:29.094Z,11.51
2022-10-14T01:03:30.812Z,11.51
2022-10-14T01:04:32.556Z,11.52
2022-10-14T01:05:34.322Z,11.51
2022-10-14T01:06:36.038Z,11.51
2022-10-14T01:07:37.764Z,11.51
2022-10-14T01:08:39.499Z,11.51
2022-10-14T01:09:41.228Z,11.51
2022-10-14T01:10:42.975Z,11.51
2022-10-14T01:11:44.696Z,11.51
2022-10-14T01:12:46.440Z,11.51
2022-10-14T01:13:48.173Z,11.51
2022-10-14T01:14:49.904Z,11.51
2022-10-14T01:15:51.653Z,11.5
2022-10-14T01:16:53.375Z,11.5
2022-10-14T01:17:55.108Z,11.5
2022-10-14T01:18:56.844Z,11.51
2022-10-14T01:19:58.573Z,11.51
2022-10-14T01:21:00.327Z,11.5
2022-10-14T01:22:02.040Z,11.5
2022-10-14T01:23:03.786Z,11.49
2022-10-14T01:24:05.524Z,11.49
2022-10-14T01:25:07.250Z,11.49
2022-10-14T01:26:09.002Z,11.49
2022-10-14T01:27:10.709Z,11.48
2022-10-14T01:28:12.454Z,11.47
2022-10-14T01:29:14.191Z,11.48
2022-10-14T01:30:15.935Z,11.47
2022-10-14T01:31:17.662Z,11.47
2022-10-14T01:32:19.810Z,11.47
2022-10-14T01:33:21.125Z,11.46
2022-10-14T01:34:22.866Z,11.47
2022-10-14T01:35:24.634Z,11.47
2022-10-14T01:36:26.363Z,11.46
2022-10-14T01:37:28.061Z,11.46
2022-10-14T01:38:29.800Z,11.46
2022-10-14T01:39:31.548Z,11.46
2022-10-14T01:40:33.286Z,11.46
2022-10-14T01:41:35.012Z,11.45
2022-10-14T01:42:36.740Z,11.44
2022-10-14T01:43:38.480Z,11.44
2022-10-14T01:44:40.209Z,11.45
2022-10-14T01:45:41.952Z,11.44
2022-10-14T01:46:43.708Z,11.44
2022-10-14T01:47:45.417Z,11.44
2022-10-14T01:48:47.163Z,11.43
2022-10-14T01:49:48.897Z,11.43
2022-10-14T01:50:50.634Z,11.43
2022-10-14T01:51:52.364Z,11.43
2022-10-14T01:52:54.084Z,11.43
2022-10-14T01:53:55.842Z,11.42
2022-10-14T01:54:57.569Z,11.42
2022-10-14T01:55:59.313Z,11.42
2022-10-14T01:57:01.086Z,11.42
2022-10-14T01:58:02.771Z,11.42
2022-10-14T01:59:04.511Z,11.42
2022-10-14T02:00:06.240Z,11.42
2022-10-14T02:01:07.985Z,11.42
2022-10-14T02:02:09.768Z,11.42
2022-10-14T02:03:11.468Z,11.42
2022-10-14T02:04:13.194Z,11.42
2022-10-14T02:05:14.960Z,11.42
2022-10-14T02:06:16.671Z,11.41
2022-10-14T02:07:18.419Z,11.41
2022-10-14T02:08:20.128Z,11.4
2022-10-14T02:09:21.866Z,11.4
2022-10-14T02:10:23.608Z,11.41
2022-10-14T02:11:25.344Z,11.4
2022-10-14T02:12:27.084Z,11.41
2022-10-14T02:13:28.807Z,11.4
2022-10-14T02:14:30.555Z,11.4
2022-10-14T02:15:32.284Z,11.41
2022-10-14T02:16:34.017Z,11.4
2022-10-14T02:17:35.772Z,11.4
2022-10-14T02:18:37.493Z,11.4
2022-10-14T02:19:39.219Z,11.4
2022-10-14T02:20:40.954Z,11.4
2022-10-14T02:21:42.686Z,11.4
2022-10-14T02:22:44.445Z,11.4
2022-10-14T02:23:46.161Z,11.4
2022-10-14T02:24:47.904Z,11.4
2022-10-14T02:25:49.635Z,11.4
2022-10-14T02:26:51.373Z,11.4
2022-10-14T02:27:53.126Z,11.4
2022-10-14T02:28:54.911Z,11.4
2022-10-14T02:29:56.575Z,11.41
2022-10-14T02:30:58.310Z,11.4
2022-10-14T02:32:00.052Z,11.4
2022-10-14T02:33:01.795Z,11.41
2022-10-14T02:34:03.499Z,11.41
2022-10-14T02:35:05.243Z,11.41
2022-10-14T02:36:06.970Z,11.41
2022-10-14T02:37:08.711Z,11.41
2022-10-14T02:38:10.461Z,11.41
2022-10-14T02:39:12.184Z,11.41
2022-10-14T02:40:13.918Z,11.41
2022-10-14T02:41:15.654Z,11.42
2022-10-14T02:42:17.380Z,11.41
2022-10-14T02:43:19.125Z,11.42
2022-10-14T02:44:20.864Z,11.41
2022-10-14T02:45:22.585Z,11.41
2022-10-14T02:46:24.316Z,11.42
2022-10-14T02:47:26.094Z,11.42
2022-10-14T02:48:27.802Z,11.42
2022-10-14T02:49:29.518Z,11.43
2022-10-14T02:50:31.256Z,11.43
2022-10-14T02:51:33.006Z,11.43
2022-10-14T02:52:34.725Z,11.43
2022-10-14T02:53:36.478Z,11.43
2022-10-14T02:54:38.200Z,11.44
2022-10-14T02:55:39.930Z,11.44
2022-10-14T02:56:41.667Z,11.45
2022-10-14T02:57:43.404Z,11.44
2022-10-14T02:58:45.168Z,11.45
2022-10-14T02:59:46.876Z,11.46
2022-10-14T03:00:48.615Z,11.47
2022-10-14T03:01:50.369Z,11.47
2022-10-14T03:02:52.076Z,11.47
2022-10-14T03:03:53.819Z,11.48
2022-10-14T03:04:55.544Z,11.48
2022-10-14T03:05:57.278Z,11.49
2022-10-14T03:06:59.021Z,11.5
2022-10-14T03:08:00.751Z,11.51
2022-10-14T03:09:02.528Z,11.51
2022-10-14T03:10:04.223Z,11.52
2022-10-14T03:11:05.949Z,11.53
2022-10-14T03:12:07.703Z,11.53
2022-10-14T03:13:09.429Z,11.54
2022-10-14T03:14:11.171Z,11.56
2022-10-14T03:15:12.896Z,11.56
2022-10-14T03:16:14.626Z,11.57
2022-10-14T03:17:16.365Z,11.57
2022-10-14T03:18:18.099Z,11.57
2022-10-14T03:19:19.846Z,11.57
2022-10-14T03:20:21.576Z,11.58
2022-10-14T03:21:23.301Z,11.59
2022-10-14T03:22:25.043Z,11.59
2022-10-14T03:23:26.777Z,11.6
2022-10-14T03:24:28.516Z,11.6
2022-10-14T03:25:30.236Z,11.61
2022-10-14T03:26:31.973Z,11.61
2022-10-14T03:27:33.712Z,11.62
2022-10-14T03:28:35.535Z,11.62
2022-10-14T03:29:37.202Z,11.62
2022-10-14T03:30:38.919Z,11.62
2022-10-14T03:31:40.644Z,11.63
2022-10-14T03:32:42.396Z,11.64
2022-10-14T03:33:44.125Z,11.65
2022-10-14T03:34:45.872Z,11.65
2022-10-14T03:35:47.593Z,11.64
2022-10-14T03:36:49.330Z,11.65
2022-10-14T03:37:51.063Z,11.66
2022-10-14T03:38:52.797Z,11.66
2022-10-14T03:39:54.546Z,11.66
2022-10-14T03:40:56.268Z,11.67
2022-10-14T03:41:57.998Z,11.67
2022-10-14T03:42:59.740Z,11.68
2022-10-14T03:44:01.472Z,11.67
2022-10-14T03:45:03.217Z,11.68
2022-10-14T03:46:04.928Z,11.68
2022-10-14T03:47:06.680Z,11.68
2022-10-14T03:48:08.406Z,11.69
2022-10-14T03:49:10.149Z,11.68
2022-10-14T03:50:11.906Z,11.68
2022-10-14T03:51:13.618Z,11.69
2022-10-14T03:52:15.357Z,11.69
2022-10-14T03:53:17.096Z,11.7
2022-10-14T03:54:18.817Z,11.7
2022-10-14T03:55:20.557Z,11.71
2022-10-14T03:56:22.289Z,11.71
2022-10-14T03:57:24.029Z,11.71
2022-10-14T03:58:25.758Z,11.72
2022-10-14T03:59:27.493Z,11.71
2022-10-14T04:00:29.228Z,11.72
2022-10-14T04:01:31.028Z,11.72
2022-10-14T04:02:32.697Z,11.72
2022-10-14T04:03:34.428Z,11.73
2022-10-14T04:04:36.188Z,11.72
2022-10-14T04:05:37.921Z,11.73
2022-10-14T04:06:39.666Z,11.73
2022-10-14T04:07:41.395Z,11.73
2022-10-14T04:08:43.110Z,11.73
2022-10-14T04:09:44.860Z,11.73
2022-10-14T04:10:46.593Z,11.74
2022-10-14T04:11:48.304Z,11.74
2022-10-14T04:12:50.031Z,11.74
2022-10-14T04:13:51.781Z,11.74
2022-10-14T04:14:53.522Z,11.75
2022-10-14T04:15:55.276Z,11.75
2022-10-14T04:16:56.984Z,11.75
2022-10-14T04:17:58.721Z,11.75
2022-10-14T04:19:00.451Z,11.75
2022-10-14T04:20:02.188Z,11.75
2022-10-14T04:21:03.936Z,11.75
2022-10-14T04:22:05.670Z,11.76
2022-10-14T04:23:07.399Z,11.76
2022-10-14T04:24:09.127Z,11.76
2022-10-14T04:25:10.860Z,11.76
2022-10-14T04:26:12.596Z,11.75
2022-10-14T04:27:14.325Z,11.76
2022-10-14T04:28:16.095Z,11.76
2022-10-14T04:29:17.807Z,11.76
2022-10-14T04:30:19.554Z,11.76
2022-10-14T04:31:21.293Z,11.77
2022-10-14T04:32:23.502Z,11.76
2022-10-14T04:33:24.729Z,11.76
2022-10-14T04:34:26.470Z,11.77
2022-10-14T04:35:28.232Z,11.76
2022-10-14T04:36:29.944Z,11.76
2022-10-14T04:37:31.682Z,11.76
2022-10-14T04:38:33.404Z,11.76
2022-10-14T04:39:35.148Z,11.78
2022-10-14T04:40:36.903Z,11.78
2022-10-14T04:41:38.641Z,11.77
2022-10-14T04:42:40.347Z,11.78
2022-10-14T04:43:42.087Z,11.79
2022-10-14T04:44:43.845Z,11.79
2022-10-14T04:45:45.559Z,11.79
2022-10-14T04:46:47.285Z,11.79
2022-10-14T04:47:49.017Z,11.79
2022-10-14T04:48:50.753Z,11.79
2022-10-14T04:49:52.516Z,11.8
2022-10-14T04:50:54.251Z,11.79
2022-10-14T04:51:55.977Z,11.79
2022-10-14T04:52:57.702Z,11.79
2022-10-14T04:53:59.435Z,11.79
2022-10-14T04:55:01.196Z,11.79
2022-10-14T04:56:02.907Z,11.78
2022-10-14T04:57:04.643Z,11.78
2022-10-14T04:58:06.374Z,11.78
2022-10-14T04:59:08.101Z,11.77
2022-10-14T05:00:09.850Z,11.77
2022-10-14T05:01:11.590Z,11.77
2022-10-14T05:02:13.367Z,11.77
2022-10-14T05:03:15.050Z,11.77
2022-10-14T05:04:16.788Z,11.76
2022-10-14T05:05:18.516Z,11.75
2022-10-14T05:06:20.266Z,11.76
2022-10-14T05:07:21.984Z,11.76
2022-10-14T05:08:23.717Z,11.75
2022-10-14T05:09:25.454Z,11.75
2022-10-14T05:10:27.193Z,11.75
2022-10-14T05:11:28.947Z,11.75
2022-10-14T05:12:30.651Z,11.74
2022-10-14T05:13:32.402Z,11.74
2022-10-14T05:14:34.128Z,11.73
2022-10-14T05:15:35.860Z,11.73
2022-10-14T05:16:37.602Z,11.74
2022-10-14T05:17:39.329Z,11.72
2022-10-14T05:18:41.067Z,11.73
2022-10-14T05:19:42.797Z,11.73
2022-10-14T05:20:44.543Z,11.73
2022-10-14T05:21:46.278Z,11.73
2022-10-14T05:22:48.006Z,11.72
2022-10-14T05:23:49.733Z,11.72
2022-10-14T05:24:51.463Z,11.73
2022-10-14T05:25:53.211Z,11.72
2022-10-14T05:26:54.942Z,11.73
2022-10-14T05:27:56.678Z,11.73
2022-10-14T05:28:58.447Z,11.72
2022-10-14T05:30:00.145Z,11.73
2022-10-14T05:31:01.891Z,11.72
2022-10-14T05:32:03.618Z,11.72
2022-10-14T05:33:05.358Z,11.72
2022-10-14T05:34:07.085Z,11.73
2022-10-14T05:35:08.886Z,11.72
2022-10-14T05:36:10.549Z,11.72
2022-10-14T05:37:12.283Z,11.71
2022-10-14T05:38:14.039Z,11.71
2022-10-14T05:39:15.782Z,11.71
2022-10-14T05:40:17.508Z,11.71
2022-10-14T05:41:19.244Z,11.71
2022-10-14T05:42:21.417Z,11.71
2022-10-14T05:43:24.045Z,11.7
2022-10-14T05:44:24.442Z,11.7
2022-10-14T05:45:26.194Z,11.7
2022-10-14T05:46:27.913Z,11.71
2022-10-14T05:47:29.642Z,11.71
2022-10-14T05:48:31.371Z,11.7
2022-10-14T05:49:33.113Z,11.7
2022-10-14T05:50:34.842Z,11.7
2022-10-14T05:51:36.614Z,11.7
2022-10-14T05:52:38.313Z,11.71
2022-10-14T05:53:40.176Z,11.7
2022-10-14T05:54:41.807Z,11.7
2022-10-14T05:55:43.526Z,11.7
2022-10-14T05:56:45.259Z,11.7
2022-10-14T05:57:46.974Z,11.7
2022-10-14T05:58:48.713Z,11.7
2022-10-14T05:59:50.452Z,11.7
2022-10-14T06:00:52.185Z,11.7
2022-10-14T06:01:53.924Z,11.7
2022-10-14T06:02:55.679Z,11.7
2022-10-14T06:03:57.399Z,11.7
2022-10-14T06:04:59.123Z,11.7
2022-10-14T06:06:00.870Z,11.71
2022-10-14T06:07:02.599Z,11.72
2022-10-14T06:08:04.317Z,11.72
2022-10-14T06:09:11.040Z,11.72
2022-10-14T06:10:07.799Z,11.73
2022-10-14T06:11:09.547Z,11.74
2022-10-14T06:12:11.254Z,11.75
2022-10-14T06:13:13.004Z,11.75
2022-10-14T06:14:14.739Z,11.76
2022-10-14T06:15:16.475Z,11.76
2022-10-14T06:16:18.201Z,11.77
2022-10-14T06:17:19.935Z,11.78
2022-10-14T06:18:21.667Z,11.78
2022-10-14T06:19:23.406Z,11.79
2022-10-14T06:20:25.138Z,11.78
2022-10-14T06:21:26.915Z,11.79
2022-10-14T06:22:28.606Z,11.8
2022-10-14T06:23:30.344Z,11.81
2022-10-14T06:24:32.081Z,11.8
2022-10-14T06:25:33.811Z,11.81
2022-10-14T06:26:35.559Z,11.81
2022-10-14T06:27:37.276Z,11.81
2022-10-14T06:28:39.086Z,11.81
2022-10-14T06:29:40.750Z,11.81
2022-10-14T06:30:42.479Z,11.81
2022-10-14T06:31:45.552Z,11.81
2022-10-14T06:32:45.951Z,11.81
2022-10-14T06:33:47.681Z,11.81
2022-10-14T06:34:49.416Z,11.82
2022-10-14T06:35:51.151Z,11.82
2022-10-14T06:36:52.874Z,11.82
2022-10-14T06:37:58.975Z,11.82
2022-10-14T06:39:01.490Z,11.82
2022-10-14T06:40:03.227Z,11.83
2022-10-14T06:41:05.008Z,11.82
2022-10-14T06:42:12.135Z,11.82
2022-10-14T06:43:08.424Z,11.83
2022-10-14T06:44:10.178Z,11.84
2022-10-14T06:45:11.895Z,11.84
2022-10-14T06:46:13.639Z,11.84
2022-10-14T06:47:15.369Z,11.84
2022-10-14T06:48:17.099Z,11.85
2022-10-14T06:49:18.837Z,11.85
2022-10-14T06:50:20.569Z,11.86
2022-10-14T06:51:22.314Z,11.85
2022-10-14T06:52:24.217Z,11.86
2022-10-14T06:53:25.757Z,11.87
2022-10-14T06:54:27.506Z,11.87
2022-10-14T06:55:29.244Z,11.87
2022-10-14T06:56:30.974Z,11.87
2022-10-14T06:57:32.707Z,11.87
2022-10-14T06:58:34.437Z,11.87
2022-10-14T06:59:36.172Z,11.87
2022-10-14T07:00:37.982Z,11.87
2022-10-14T07:01:39.718Z,11.87
2022-10-14T07:02:41.439Z,11.87
2022-10-14T07:03:43.117Z,11.88
2022-10-14T07:04:44.852Z,11.87
2022-10-14T07:05:46.579Z,11.87
2022-10-14T07:06:48.541Z,11.88
2022-10-14T07:07:50.122Z,11.89
2022-10-14T07:08:51.780Z,11.89
2022-10-14T07:09:53.521Z,11.89
2022-10-14T07:10:55.256Z,11.9
2022-10-14T07:11:56.984Z,11.9
2022-10-14T07:12:58.730Z,11.9
2022-10-14T07:14:00.459Z,11.91
2022-10-14T07:15:02.190Z,11.91
2022-10-14T07:16:03.939Z,11.91
2022-10-14T07:17:05.663Z,11.92
2022-10-14T07:18:07.397Z,11.92
2022-10-14T07:19:09.120Z,11.93
2022-10-14T07:20:10.861Z,11.93
2022-10-14T07:21:12.616Z,11.93
2022-10-14T07:22:14.338Z,11.94
2022-10-14T07:23:16.053Z,11.95
2022-10-14T07:24:17.806Z,11.94
2022-10-14T07:25:19.522Z,11.95
2022-10-14T07:26:21.266Z,11.95
2022-10-14T07:27:23.402Z,11.96
2022-10-14T07:28:24.771Z,11.96
2022-10-14T07:29:26.455Z,11.97
2022-10-14T07:30:28.218Z,11.98
2022-10-14T07:31:29.965Z,11.98
2022-10-14T07:32:31.663Z,11.99
2022-10-14T07:33:33.491Z,12
2022-10-14T07:34:35.141Z,12.01
2022-10-14T07:35:36.873Z,12.02
2022-10-14T07:36:38.613Z,12.03
2022-10-14T07:37:40.346Z,12.04
2022-10-14T07:38:42.081Z,12.06
2022-10-14T07:39:43.808Z,12.06
2022-10-14T07:40:45.533Z,12.07
2022-10-14T07:41:47.300Z,12.08
2022-10-14T07:42:49.020Z,12.09
2022-10-14T07:43:50.760Z,12.1
2022-10-14T07:44:52.492Z,12.11
2022-10-14T07:45:54.226Z,12.12
2022-10-14T07:46:55.969Z,12.13
2022-10-14T07:47:57.710Z,12.14
2022-10-14T07:48:59.422Z,12.14
2022-10-14T07:50:01.165Z,12.15
2022-10-14T07:51:02.930Z,12.15
2022-10-14T07:52:04.651Z,12.15
2022-10-14T07:53:06.369Z,12.15
2022-10-14T07:54:08.098Z,12.15
2022-10-14T07:55:09.825Z,12.15
2022-10-14T07:56:11.579Z,12.16
2022-10-14T07:57:13.303Z,12.17
2022-10-14T07:58:15.028Z,12.15
2022-10-14T07:59:16.770Z,12.17
2022-10-14T08:00:18.523Z,12.17
2022-10-14T08:01:20.291Z,12.16
2022-10-14T08:02:21.962Z,12.17
2022-10-14T08:03:23.713Z,12.16
2022-10-14T08:04:25.434Z,12.17
2022-10-14T08:05:38.662Z,12.15
2022-10-14T08:06:28.907Z,12.15
2022-10-14T08:07:30.648Z,12.16
2022-10-14T08:08:32.382Z,12.17
2022-10-14T08:09:34.123Z,12.16
2022-10-14T08:10:35.846Z,12.17
2022-10-14T08:11:37.603Z,12.17
2022-10-14T08:12:40.010Z,12.17
2022-10-14T08:13:43.545Z,12.17
2022-10-14T08:14:42.777Z,12.18
2022-10-14T08:15:44.507Z,12.17
2022-10-14T08:17:06.877Z,12.17
2022-10-14T08:18:08.550Z,12.18
2022-10-14T08:19:14.171Z,12.18
2022-10-14T08:20:12.066Z,12.17
2022-10-14T08:21:13.788Z,12.17
2022-10-14T08:22:15.517Z,12.17
2022-10-14T08:23:19.770Z,12.17
2022-10-14T08:24:18.983Z,12.17
2022-10-14T08:25:20.704Z,12.17
2022-10-14T08:26:22.490Z,12.17
2022-10-14T08:27:24.178Z,12.17
2022-10-14T08:28:25.965Z,12.17
2022-10-14T08:29:27.631Z,12.17
2022-10-14T08:30:29.373Z,12.17
2022-10-14T08:31:31.130Z,12.17
2022-10-14T08:32:32.846Z,12.18
2022-10-14T08:33:34.580Z,12.18
2022-10-14T08:34:36.315Z,12.17
2022-10-14T08:35:38.038Z,12.16
2022-10-14T08:36:39.786Z,12.17
2022-10-14T08:37:41.499Z,12.17
2022-10-14T08:38:43.236Z,12.17
2022-10-14T08:39:44.969Z,12.18
2022-10-14T08:40:46.715Z,12.18
2022-10-14T08:41:48.465Z,12.19
2022-10-14T08:42:50.176Z,12.21
2022-10-14T08:43:51.913Z,12.21
2022-10-14T08:44:53.638Z,12.23
2022-10-14T08:45:55.381Z,12.24
2022-10-14T08:46:57.142Z,12.26
2022-10-14T08:47:58.847Z,12.27
2022-10-14T08:49:00.579Z,12.29
2022-10-14T08:50:02.340Z,12.31
2022-10-14T08:51:04.050Z,12.34
2022-10-14T08:52:05.808Z,12.36
2022-10-14T08:53:07.526Z,12.37
2022-10-14T08:54:09.272Z,12.39
2022-10-14T08:55:10.991Z,12.39
2022-10-14T08:56:12.731Z,12.42
2022-10-14T08:57:14.450Z,12.44
2022-10-14T08:58:16.313Z,12.45
2022-10-14T08:59:17.949Z,12.47
2022-10-14T09:00:19.658Z,12.49
2022-10-14T09:01:21.428Z,12.51
2022-10-14T09:02:23.413Z,12.53
2022-10-14T09:03:24.859Z,12.54
2022-10-14T09:04:26.642Z,12.56
2022-10-14T09:05:28.349Z,12.57
2022-10-14T09:06:30.120Z,12.59
2022-10-14T09:07:31.859Z,12.62
2022-10-14T09:08:33.572Z,12.63
2022-10-14T09:09:35.286Z,12.65
2022-10-14T09:10:37.012Z,12.66
2022-10-14T09:11:38.773Z,12.68
2022-10-14T09:12:40.529Z,12.7
2022-10-14T09:13:42.223Z,12.71
2022-10-14T09:14:43.966Z,12.71
2022-10-14T09:15:45.690Z,12.73
2022-10-14T09:16:51.759Z,12.74
2022-10-14T09:17:49.163Z,12.75
2022-10-14T09:18:53.931Z,12.76
2022-10-14T09:19:52.629Z,12.78
2022-10-14T09:20:54.369Z,12.79
2022-10-14T09:21:56.131Z,12.81
2022-10-14T09:22:57.840Z,12.82
2022-10-14T09:23:59.585Z,12.83
2022-10-14T09:25:01.320Z,12.85
2022-10-14T09:26:03.028Z,12.86
2022-10-14T09:27:04.782Z,12.87
2022-10-14T09:28:06.491Z,12.89
2022-10-14T09:29:08.233Z,12.9
2022-10-14T09:30:10.012Z,12.93
2022-10-14T09:31:11.744Z,12.93
2022-10-14T09:32:13.418Z,12.95
2022-10-14T09:33:15.161Z,12.96
2022-10-14T09:34:16.905Z,12.98
2022-10-14T09:35:18.648Z,12.99
2022-10-14T09:36:20.373Z,13
2022-10-14T09:37:22.485Z,13
2022-10-14T09:38:23.848Z,13.03
2022-10-14T09:39:25.583Z,13.03
2022-10-14T09:40:27.324Z,13.04
2022-10-14T09:41:29.052Z,13.05
2022-10-14T09:42:30.805Z,13.07
2022-10-14T09:43:32.569Z,13.08
2022-10-14T09:44:34.257Z,13.1
2022-10-14T09:45:35.972Z,13.11
2022-10-14T09:46:37.723Z,13.12
2022-10-14T09:47:39.435Z,13.13
2022-10-14T09:48:41.170Z,13.15
2022-10-14T09:49:42.906Z,13.15
2022-10-14T09:50:44.662Z,13.15
2022-10-14T09:51:46.399Z,13.16
2022-10-14T09:52:48.099Z,13.16
2022-10-14T09:53:49.860Z,13.18
2022-10-14T09:54:51.592Z,13.17
2022-10-14T09:55:53.324Z,13.16
2022-10-14T09:56:55.072Z,13.16
2022-10-14T09:57:56.776Z,13.16
2022-10-14T09:58:58.526Z,13.18
2022-10-14T10:00:00.243Z,13.18
2022-10-14T10:01:01.987Z,13.19
2022-10-14T10:02:03.720Z,13.2
2022-10-14T10:03:05.440Z,13.2
2022-10-14T10:04:07.316Z,13.21
2022-10-14T10:05:08.924Z,13.22
2022-10-14T10:06:10.695Z,13.23
2022-10-14T10:07:12.397Z,13.26
2022-10-14T10:08:14.142Z,13.26
2022-10-14T10:09:15.861Z,13.29
2022-10-14T10:10:17.659Z,13.3
2022-10-14T10:11:19.327Z,13.32
2022-10-14T10:12:21.057Z,13.32
2022-10-14T10:13:22.781Z,13.33
2022-10-14T10:14:24.540Z,13.34
2022-10-14T10:15:26.265Z,13.33
2022-10-14T10:16:27.995Z,13.34
2022-10-14T10:17:29.728Z,13.35
2022-10-14T10:18:31.449Z,13.36
2022-10-14T10:19:33.202Z,13.37
2022-10-14T10:20:34.943Z,13.38
2022-10-14T10:21:36.690Z,13.38
2022-10-14T10:22:38.414Z,13.39
2022-10-14T10:23:40.131Z,13.4
2022-10-14T10:24:41.866Z,13.41
2022-10-14T10:25:43.600Z,13.41
2022-10-14T10:26:45.354Z,13.42
2022-10-14T10:27:47.067Z,13.42
2022-10-14T10:28:48.845Z,13.43
2022-10-14T10:29:50.528Z,13.44
2022-10-14T10:30:52.279Z,13.45
2022-10-14T10:31:54.050Z,13.46
2022-10-14T10:32:55.735Z,13.46
2022-10-14T10:33:57.464Z,13.47
2022-10-14T10:34:59.227Z,13.47
2022-10-14T10:36:00.982Z,13.46
2022-10-14T10:37:02.693Z,13.46
2022-10-14T10:38:04.435Z,13.47
2022-10-14T10:39:06.144Z,13.47
2022-10-14T10:40:07.927Z,13.47
2022-10-14T10:41:09.650Z,13.46
2022-10-14T10:42:12.469Z,13.47
2022-10-14T10:43:13.074Z,13.47
2022-10-14T10:44:14.854Z,13.47
2022-10-14T10:45:16.576Z,13.48
2022-10-14T10:46:18.303Z,13.48
2022-10-14T10:47:20.036Z,13.47
2022-10-14T10:48:21.800Z,13.48
2022-10-14T10:49:23.513Z,13.48
2022-10-14T10:50:26.513Z,13.49
2022-10-14T10:51:26.999Z,13.5
2022-10-14T10:52:28.748Z,13.5
2022-10-14T10:53:30.468Z,13.51
2022-10-14T10:54:32.203Z,13.52
2022-10-14T10:55:33.914Z,13.53
2022-10-14T10:56:35.683Z,13.53
2022-10-14T10:57:37.402Z,13.54
2022-10-14T10:58:39.108Z,13.55
2022-10-14T10:59:40.864Z,13.54
2022-10-14T11:00:42.621Z,13.54
2022-10-14T11:01:44.448Z,13.55
2022-10-14T11:02:46.073Z,13.55
2022-10-14T11:03:47.837Z,13.54
2022-10-14T11:04:49.543Z,13.55
2022-10-14T11:05:51.287Z,13.55
2022-10-14T11:06:52.997Z,13.55
2022-10-14T11:07:54.730Z,13.55
2022-10-14T11:08:56.475Z,13.54
2022-10-14T11:09:58.224Z,13.53
2022-10-14T11:10:59.932Z,13.53
2022-10-14T11:12:01.680Z,13.53
2022-10-14T11:13:03.402Z,13.53
2022-10-14T11:14:05.142Z,13.54
2022-10-14T11:15:06.958Z,13.53
2022-10-14T11:16:08.609Z,13.53
2022-10-14T11:17:10.349Z,13.52
2022-10-14T11:18:12.063Z,13.53
2022-10-14T11:19:14.602Z,13.53
2022-10-14T11:20:15.621Z,13.53
2022-10-14T11:21:17.301Z,13.53
2022-10-14T11:22:19.306Z,13.53
2022-10-14T11:23:20.744Z,13.53
2022-10-14T11:24:22.475Z,13.53
2022-10-14T11:25:24.245Z,13.53
2022-10-14T11:26:26.011Z,13.52
2022-10-14T11:27:27.904Z,13.52
2022-10-14T11:28:29.480Z,13.52
2022-10-14T11:29:31.132Z,13.52
2022-10-14T11:30:32.860Z,13.51
2022-10-14T11:31:34.618Z,13.51
2022-10-14T11:32:36.329Z,13.51
2022-10-14T11:33:39.819Z,13.51
2022-10-14T11:34:39.791Z,13.51
2022-10-14T11:35:41.528Z,13.5
2022-10-14T11:36:43.263Z,13.5
2022-10-14T11:37:44.996Z,13.5
2022-10-14T11:38:46.717Z,13.49
2022-10-14T11:39:48.494Z,13.49
2022-10-14T11:40:50.188Z,13.49
2022-10-14T11:41:51.957Z,13.49
2022-10-14T11:42:53.660Z,13.49
2022-10-14T11:43:55.265Z,13.49
2022-10-14T11:44:57.007Z,13.49
2022-10-14T11:45:58.738Z,13.48
2022-10-14T11:47:00.471Z,13.48
2022-10-14T11:48:02.209Z,13.47
2022-10-14T11:49:03.942Z,13.47
2022-10-14T11:50:05.733Z,13.47
2022-10-14T11:51:07.409Z,13.47
2022-10-14T11:52:19.833Z,13.46
2022-10-14T11:53:21.140Z,13.46
2022-10-14T11:54:22.884Z,13.46
2022-10-14T11:55:24.611Z,13.45
2022-10-14T11:56:26.362Z,13.45
2022-10-14T11:57:28.089Z,13.45
2022-10-14T11:58:29.817Z,13.45
2022-10-14T11:59:31.588Z,13.46
2022-10-14T12:00:43.590Z,13.45
2022-10-14T12:01:45.345Z,13.45
2022-10-14T12:02:47.148Z,13.45
2022-10-14T12:03:48.791Z,13.46
2022-10-14T12:04:50.535Z,13.46
2022-10-14T12:05:52.267Z,13.47
2022-10-14T12:06:54.027Z,13.46
2022-10-14T12:07:55.720Z,13.46
2022-10-14T12:08:57.494Z,13.47
2022-10-14T12:10:01.467Z,13.48
2022-10-14T12:11:05.741Z,13.48
2022-10-14T12:12:10.588Z,13.48
2022-10-14T12:13:12.320Z,13.5
2022-10-14T12:14:14.030Z,13.49
2022-10-14T12:15:15.764Z,13.5
2022-10-14T12:16:17.523Z,13.51
2022-10-14T12:17:19.294Z,13.51
2022-10-14T12:18:20.996Z,13.51
2022-10-14T12:19:22.740Z,13.52
2022-10-14T12:20:24.448Z,13.51
2022-10-14T12:21:26.193Z,13.51
2022-10-14T12:22:27.920Z,13.51
2022-10-14T12:23:29.655Z,13.51
2022-10-14T12:24:31.381Z,13.52
2022-10-14T12:25:33.099Z,13.51
2022-10-14T12:26:34.853Z,13.52
2022-10-14T12:28:38.208Z,13.52
2022-10-14T12:29:40.037Z,13.53
2022-10-14T12:30:41.799Z,13.53
2022-10-14T12:31:43.530Z,13.54
2022-10-14T12:32:45.332Z,13.54
2022-10-14T12:33:46.978Z,13.54
2022-10-14T12:34:48.732Z,13.55
2022-10-14T12:35:50.435Z,13.54
2022-10-14T12:36:52.174Z,13.55
2022-10-14T12:37:53.974Z,13.55
2022-10-14T12:38:55.655Z,13.55
2022-10-14T12:39:57.378Z,13.56
2022-10-14T12:40:59.119Z,13.57
2022-10-14T12:42:00.847Z,13.58
2022-10-14T12:43:02.571Z,13.58
2022-10-14T12:44:04.331Z,13.59
2022-10-14T12:45:06.053Z,13.6
2022-10-14T12:46:08.000Z,13.6
2022-10-14T12:47:09.512Z,13.62
2022-10-14T12:48:15.861Z,13.62
2022-10-14T12:49:18.126Z,13.62
2022-10-14T12:50:19.874Z,13.63
2022-10-14T12:51:21.604Z,13.64
2022-10-14T12:52:23.323Z,13.65
2022-10-14T12:53:25.077Z,13.65
2022-10-14T12:54:26.807Z,13.65
2022-10-14T12:55:35.751Z,13.65
2022-10-14T12:56:40.573Z,13.66
2022-10-14T12:57:42.543Z,13.67
2022-10-14T12:58:45.231Z,13.67
2022-10-14T12:59:45.895Z,13.68
2022-10-14T13:00:47.628Z,13.68
2022-10-14T13:01:49.405Z,13.69
2022-10-14T13:02:51.104Z,13.7
2022-10-14T13:03:52.905Z,13.71
2022-10-14T13:04:54.595Z,13.71
2022-10-14T13:05:56.288Z,13.72
2022-10-14T13:06:59.522Z,13.72
2022-10-14T13:07:59.764Z,13.72
2022-10-14T13:09:01.512Z,13.72
2022-10-14T13:10:03.263Z,13.73
2022-10-14T13:11:04.972Z,13.72
2022-10-14T13:12:06.709Z,13.73
2022-10-14T13:13:08.452Z,13.73
2022-10-14T13:14:10.160Z,13.73
2022-10-14T13:15:11.917Z,13.73
2022-10-14T13:16:13.634Z,13.74
2022-10-14T13:17:15.730Z,13.74
2022-10-14T13:18:17.100Z,13.74
2022-10-14T13:19:18.854Z,13.75
2022-10-14T13:20:20.593Z,13.75